createdAt,value
2023-03-23T15:58:15.895Z,4.33
2023-03-23T16:00:45.327Z,3.97
2023-03-23T16:03:20.452Z,3.53
2023-03-23T16:05:48.370Z,4.60
2023-03-23T16:08:17.865Z,2.87
2023-03-23T16:10:45.811Z,3.77
2023-03-23T16:13:13.688Z,11.97
2023-03-23T16:15:41.875Z,8.67
2023-03-23T16:18:18.503Z,8.83
2023-03-23T16:20:46.744Z,3.87
2023-03-23T16:23:14.555Z,2.53
2023-03-23T16:25:44.101Z,2.60
2023-03-23T16:28:13.899Z,4.00
2023-03-23T16:30:43.106Z,2.70
2023-03-23T16:33:11.606Z,3.10
2023-03-23T16:35:40.149Z,3.10
2023-03-23T16:38:09.244Z,2.20
2023-03-23T16:40:38.184Z,2.30
2023-03-23T16:43:08.890Z,3.10
2023-03-23T16:45:38.089Z,5.20
2023-03-23T16:48:06.317Z,3.23
2023-03-23T16:50:34.553Z,2.70
2023-03-23T16:53:03.073Z,3.00
2023-03-23T16:55:32.007Z,3.20
2023-03-23T16:58:12.750Z,2.63
2023-03-23T17:00:47.063Z,2.50
2023-03-23T17:03:16.280Z,4.10
2023-03-23T17:05:44.874Z,3.87
2023-03-23T17:08:13.191Z,2.90
2023-03-23T17:10:42.176Z,2.80
2023-03-23T17:13:10.970Z,2.27
2023-03-23T17:15:39.270Z,3.93
2023-03-23T17:18:08.781Z,2.53
2023-03-23T17:20:36.910Z,3.70
2023-03-23T17:23:05.894Z,2.37
2023-03-23T17:25:33.683Z,3.33
2023-03-23T17:28:16.653Z,3.80
2023-03-23T17:30:46.360Z,2.30
2023-03-23T17:33:15.633Z,3.30
2023-03-23T17:35:44.445Z,3.30
2023-03-23T17:38:12.374Z,4.17
2023-03-23T17:40:40.327Z,2.90
2023-03-23T17:43:08.308Z,2.53
2023-03-23T17:45:36.423Z,3.40
2023-03-23T17:48:07.518Z,2.80
2023-03-23T17:50:36.945Z,2.23
2023-03-23T17:53:04.986Z,3.17
2023-03-23T17:55:32.822Z,3.10
2023-03-23T17:58:00.711Z,2.67
2023-03-23T18:00:28.518Z,3.00
2023-03-23T18:02:56.807Z,3.60
2023-03-23T18:05:27.682Z,4.10
2023-03-23T18:07:56.821Z,3.57
2023-03-23T18:10:24.906Z,3.50
2023-03-23T18:12:52.805Z,4.27
2023-03-23T18:15:20.838Z,2.77
2023-03-23T18:17:50.566Z,4.03
2023-03-23T18:20:18.861Z,8.27
2023-03-23T18:22:46.642Z,10.30
2023-03-23T18:25:16.048Z,11.63
2023-03-23T18:27:43.873Z,9.00
2023-03-23T18:30:12.258Z,8.70
2023-03-23T18:32:41.394Z,7.43
2023-03-23T18:35:12.513Z,5.90
2023-03-23T18:37:41.247Z,6.37
2023-03-23T18:40:11.791Z,7.10
2023-03-23T18:42:44.580Z,4.20
2023-03-23T18:45:13.348Z,3.33
2023-03-23T18:47:41.229Z,4.77
2023-03-23T18:50:11.477Z,4.70
2023-03-23T18:52:39.638Z,6.40
2023-03-23T18:55:07.954Z,5.17
2023-03-23T18:57:35.989Z,4.03
2023-03-23T19:00:06.008Z,6.50
2023-03-23T19:02:35.154Z,8.23
2023-03-23T19:05:03.034Z,8.93
2023-03-23T19:07:31.462Z,7.43
2023-03-23T19:09:59.378Z,9.13
2023-03-23T19:12:27.350Z,4.40
2023-03-23T19:14:55.160Z,5.20
2023-03-23T19:17:25.109Z,6.83
2023-03-23T19:19:52.911Z,4.60
2023-03-23T19:22:20.816Z,7.23
2023-03-23T19:24:48.621Z,6.07
2023-03-23T19:29:44.936Z,6.17
2023-03-23T19:32:12.744Z,7.00
2023-03-23T19:34:41.934Z,7.53
2023-03-23T19:37:11.439Z,9.63
2023-03-23T19:39:42.560Z,9.53
2023-03-23T19:42:10.986Z,5.60
2023-03-23T19:44:38.917Z,8.60
2023-03-23T19:47:07.182Z,6.60
2023-03-23T19:49:35.978Z,6.33
2023-03-23T19:52:11.959Z,5.97
2023-03-23T19:54:42.224Z,6.70
2023-03-23T19:57:10.918Z,6.80
2023-03-23T19:59:39.400Z,7.20
2023-03-23T20:02:07.979Z,10.50
2023-03-23T20:04:36.875Z,7.20
2023-03-23T20:07:07.776Z,8.80
2023-03-23T20:09:39.296Z,7.10
2023-03-23T20:12:07.488Z,7.50
2023-03-23T20:14:37.501Z,6.50
2023-03-23T20:17:09.800Z,8.37
2023-03-23T20:19:38.092Z,8.23
2023-03-23T20:22:07.210Z,10.10
2023-03-23T20:24:35.016Z,9.47
2023-03-23T20:27:03.814Z,8.43
2023-03-23T20:29:33.578Z,10.10
2023-03-23T20:32:01.563Z,8.47
2023-03-23T20:34:32.258Z,8.10
2023-03-23T20:37:02.569Z,11.30
2023-03-23T20:39:33.133Z,8.23
2023-03-23T20:42:03.097Z,10.23
2023-03-23T20:44:34.949Z,9.27
2023-03-23T20:47:03.790Z,9.33
2023-03-23T20:49:33.346Z,8.43
2023-03-23T20:52:01.951Z,9.17
2023-03-23T20:54:31.786Z,10.47
2023-03-23T20:56:59.875Z,11.37
2023-03-23T20:59:28.158Z,10.33
2023-03-23T21:01:56.296Z,8.70
2023-03-23T21:04:27.034Z,9.70
2023-03-23T21:06:55.713Z,8.80
2023-03-23T21:09:24.668Z,9.33
2023-03-23T21:11:54.339Z,6.23
2023-03-23T21:14:22.326Z,7.60
2023-03-23T21:16:50.955Z,5.90
2023-03-23T21:19:19.586Z,5.70
2023-03-23T21:21:55.838Z,8.80
2023-03-23T21:24:28.004Z,5.20
2023-03-23T21:26:59.214Z,5.73
2023-03-23T21:29:27.520Z,6.27
2023-03-23T21:32:07.471Z,6.20
2023-03-23T21:34:36.999Z,7.10
2023-03-23T21:37:04.919Z,6.73
2023-03-23T21:39:33.517Z,9.27
2023-03-23T21:42:06.625Z,6.27
2023-03-23T21:44:35.682Z,5.03
2023-03-23T21:47:04.162Z,9.27
2023-03-23T21:49:32.302Z,10.03
2023-03-23T21:52:00.365Z,5.53
2023-03-23T21:54:30.034Z,4.57
2023-03-23T21:56:58.695Z,7.50
2023-03-23T21:59:28.708Z,5.20
2023-03-23T22:01:58.088Z,5.03
2023-03-23T22:04:27.809Z,3.73
2023-03-23T22:06:56.030Z,3.50
2023-03-23T22:09:23.808Z,4.90
2023-03-23T22:11:51.591Z,5.73
2023-03-23T22:14:19.361Z,3.87
2023-03-23T22:16:48.525Z,4.80
2023-03-23T22:19:16.529Z,3.70
2023-03-23T22:21:44.752Z,3.27
2023-03-23T22:24:12.565Z,2.80
2023-03-23T22:26:40.435Z,3.10
2023-03-23T22:29:11.079Z,4.60
2023-03-23T22:31:40.329Z,4.30
2023-03-23T22:34:09.506Z,4.20
2023-03-23T22:36:38.721Z,5.83
2023-03-23T22:39:07.539Z,6.00
2023-03-23T22:41:37.951Z,4.10
2023-03-23T22:44:06.944Z,5.13
2023-03-23T22:46:34.773Z,3.97
2023-03-23T22:49:02.743Z,5.10
2023-03-23T22:51:32.074Z,6.43
2023-03-23T22:53:59.877Z,4.70
2023-03-23T22:56:27.760Z,6.27
2023-03-23T22:58:56.340Z,5.07
2023-03-23T23:01:24.485Z,5.90
2023-03-23T23:03:54.055Z,5.50
2023-03-23T23:06:22.465Z,6.17
2023-03-23T23:08:51.728Z,5.40
2023-03-23T23:11:21.857Z,5.40
2023-03-23T23:13:49.868Z,5.13
2023-03-23T23:16:18.606Z,6.93
2023-03-23T23:18:48.287Z,4.67
2023-03-23T23:21:18.561Z,4.27
2023-03-23T23:23:47.683Z,2.87
2023-03-23T23:26:18.044Z,2.67
2023-03-23T23:28:46.693Z,4.03
2023-03-23T23:31:22.511Z,3.67
2023-03-23T23:33:50.841Z,2.97
2023-03-23T23:36:19.227Z,2.20
2023-03-23T23:38:47.022Z,2.20
2023-03-23T23:41:16.657Z,2.50
2023-03-23T23:43:44.447Z,2.20
2023-03-23T23:46:12.278Z,2.37
2023-03-23T23:48:40.532Z,2.13
2023-03-23T23:51:09.384Z,2.83
2023-03-23T23:53:37.216Z,3.87
2023-03-23T23:56:05.944Z,2.87
2023-03-23T23:58:35.687Z,2.43
